Time;durP1;ratioP1;P1;durP2;ratioP2;P2;SDS_P1;SDS_P2;PMS_P1;PMS_P2;Temp;Humidity;BMP_temperature;BMP_pressure;BME280_temperature;BME280_humidity;BME280_pressure;Samples;Min_cycle;Max_cycle;Signal;HPM_P1;HPM_P2
2021/06/22 00:00:25;;;;;;;13.70;6.10;;;25.20;70.70;;;;;;5084419;28;20388;-72
2021/06/22 00:02:51;;;;;;;10.30;6.47;;;25.30;70.80;;;;;;5085174;28;20460;-73
2021/06/22 00:05:17;;;;;;;16.95;6.53;;;25.20;70.70;;;;;;5083966;28;20024;-73
2021/06/22 00:07:49;;;;;;;15.82;6.03;;;25.20;70.70;;;;;;5083397;28;20035;-73
2021/06/22 00:10:17;;;;;;;13.43;5.53;;;25.20;70.70;;;;;;5083389;28;20098;-73
2021/06/22 00:12:43;;;;;;;12.27;6.72;;;25.20;70.70;;;;;;5083567;28;20405;-73
2021/06/22 00:15:11;;;;;;;15.80;7.03;;;25.20;70.60;;;;;;5085255;28;20028;-72
2021/06/22 00:17:38;;;;;;;10.02;5.13;;;25.20;71.30;;;;;;5082178;28;20029;-73
2021/06/22 00:20:05;;;;;;;12.23;4.97;;;25.20;70.50;;;;;;5083278;28;20113;-73
2021/06/22 00:22:31;;;;;;;14.43;5.28;;;25.20;70.50;;;;;;5084896;28;20035;-71
2021/06/22 00:24:56;;;;;;;19.67;7.97;;;25.20;70.60;;;;;;5082604;28;20471;-73
2021/06/22 00:27:22;;;;;;;17.38;6.63;;;25.20;70.50;;;;;;5083630;28;20040;-73
2021/06/22 00:29:50;;;;;;;16.33;6.72;;;25.20;70.50;;;;;;5084770;28;20027;-72
2021/06/22 00:32:17;;;;;;;18.13;6.07;;;25.20;70.50;;;;;;5083619;28;20024;-72
2021/06/22 00:34:44;;;;;;;16.35;5.80;;;25.30;70.50;;;;;;5083327;28;20127;-73
2021/06/22 00:37:11;;;;;;;11.50;5.45;;;25.30;70.50;;;;;;5083251;28;20479;-73
2021/06/22 00:39:36;;;;;;;13.57;4.82;;;25.30;70.40;;;;;;5082982;28;20166;-72
2021/06/22 00:42:02;;;;;;;11.52;5.78;;;25.20;70.40;;;;;;5091927;28;20086;-72
2021/06/22 00:44:28;;;;;;;16.80;5.65;;;25.20;70.30;;;;;;5095474;28;20066;-74
2021/06/22 00:46:54;;;;;;;17.60;6.10;;;25.30;70.30;;;;;;5094280;28;20114;-72
2021/06/22 00:49:19;;;;;;;20.90;5.93;;;25.30;70.10;;;;;;5093956;28;20444;-73
2021/06/22 00:51:45;;;;;;;12.52;4.90;;;25.30;70.10;;;;;;5093502;28;20032;-72
2021/06/22 00:54:11;;;;;;;20.15;6.10;;;25.30;70.00;;;;;;5093340;28;20032;-72
2021/06/22 00:56:38;;;;;;;14.25;5.65;;;25.30;70.00;;;;;;5094143;28;20111;-73
2021/06/22 00:59:03;;;;;;;14.57;5.20;;;25.20;69.90;;;;;;5094215;28;20024;-73
2021/06/22 01:01:30;;;;;;;15.32;4.93;;;25.20;69.80;;;;;;5094304;28;20020;-71
2021/06/22 01:03:56;;;;;;;13.30;6.43;;;25.30;69.90;;;;;;5092935;28;20030;-73
2021/06/22 01:06:22;;;;;;;12.40;5.18;;;25.20;69.90;;;;;;5093808;28;20035;-72
2021/06/22 01:08:49;;;;;;;15.50;5.45;;;25.30;69.80;;;;;;5095169;28;20039;-73
2021/06/22 01:11:16;;;;;;;11.13;5.63;;;25.20;69.70;;;;;;5094406;28;20048;-73
2021/06/22 01:13:41;;;;;;;11.80;5.72;;;25.20;69.70;;;;;;5094745;28;20039;-73
2021/06/22 01:16:20;;;;;;;11.80;6.35;;;25.20;69.80;;;;;;5094428;28;20032;-73
2021/06/22 01:18:46;;;;;;;19.27;6.43;;;25.20;69.70;;;;;;5094447;28;20020;-74
2021/06/22 01:21:15;;;;;;;14.18;5.30;;;25.20;69.70;;;;;;5094114;28;20039;-73
2021/06/22 01:23:40;;;;;;;19.40;5.95;;;25.20;69.70;;;;;;5094733;28;20056;-73
2021/06/22 01:26:06;;;;;;;12.25;6.32;;;25.20;69.70;;;;;;5094225;28;20071;-73
2021/06/22 01:28:32;;;;;;;10.77;5.45;;;25.20;69.70;;;;;;5094519;28;20468;-71
2021/06/22 01:30:58;;;;;;;13.18;5.30;;;25.10;69.60;;;;;;5094223;28;20475;-73
2021/06/22 01:33:24;;;;;;;18.80;6.22;;;25.20;69.60;;;;;;5094171;28;20035;-72
2021/06/22 01:35:50;;;;;;;16.08;7.38;;;25.10;69.40;;;;;;5093878;28;20032;-71
2021/06/22 01:38:15;;;;;;;12.60;5.90;;;25.10;69.30;;;;;;5093886;28;20028;-73
2021/06/22 01:40:50;;;;;;;10.85;5.03;;;25.10;69.30;;;;;;5094090;28;20024;-73
2021/06/22 01:43:15;;;;;;;13.75;5.53;;;25.10;69.20;;;;;;5094034;28;20077;-73
2021/06/22 01:45:41;;;;;;;14.05;5.20;;;25.10;69.20;;;;;;5093934;28;20040;-73
2021/06/22 01:48:07;;;;;;;14.00;5.32;;;25.10;69.50;;;;;;5093443;28;20024;-73
2021/06/22 01:50:33;;;;;;;9.20;5.43;;;25.10;69.00;;;;;;5094707;28;20035;-73
2021/06/22 01:52:58;;;;;;;15.85;5.32;;;25.10;68.90;;;;;;5096441;28;20060;-74
2021/06/22 01:58:04;;;;;;;14.00;5.07;;;25.10;68.60;;;;;;5093908;28;20027;-74
2021/06/22 02:00:30;;;;;;;17.13;5.85;;;25.10;68.60;;;;;;5093809;28;20024;-72
2021/06/22 02:02:56;;;;;;;9.55;4.68;;;25.10;68.40;;;;;;5092593;28;20474;-73
2021/06/22 02:05:21;;;;;;;12.98;5.70;;;25.10;68.20;;;;;;5093628;28;20487;-73
2021/06/22 02:07:47;;;;;;;14.60;5.35;;;25.10;67.90;;;;;;5093451;28;20388;-73
2021/06/22 02:10:13;;;;;;;8.27;4.13;;;25.00;67.90;;;;;;5093580;28;20044;-73
2021/06/22 02:12:39;;;;;;;10.30;5.63;;;25.00;67.80;;;;;;5093505;28;20076;-73
2021/06/22 02:15:07;;;;;;;13.57;5.88;;;25.10;67.70;;;;;;5093655;28;20485;-68
2021/06/22 02:17:33;;;;;;;12.82;6.78;;;25.00;67.60;;;;;;5093403;28;20516;-72
2021/06/22 02:19:58;;;;;;;13.48;5.38;;;25.10;67.60;;;;;;5093224;28;20032;-73
2021/06/22 02:22:24;;;;;;;15.32;5.05;;;25.00;67.50;;;;;;5093578;28;20035;-73
2021/06/22 02:24:50;;;;;;;10.57;4.90;;;25.10;67.50;;;;;;5093294;28;20134;-73
2021/06/22 02:27:28;;;;;;;11.27;4.97;;;25.10;67.60;;;;;;5093141;28;20031;-73
2021/06/22 02:29:54;;;;;;;10.90;5.88;;;25.00;67.40;;;;;;5092929;28;20020;-73
2021/06/22 02:32:20;;;;;;;9.95;4.57;;;25.10;67.40;;;;;;5093337;28;20020;-73
2021/06/22 02:34:46;;;;;;;11.65;4.38;;;25.10;67.40;;;;;;5092951;28;20028;-73
2021/06/22 02:37:12;;;;;;;8.20;4.30;;;25.10;67.40;;;;;;5093103;28;20055;-73
2021/06/22 02:39:38;;;;;;;12.07;4.85;;;25.10;67.50;;;;;;5092856;28;20035;-72
2021/06/22 02:42:05;;;;;;;13.82;5.45;;;25.10;67.60;;;;;;5093138;28;20024;-73
2021/06/22 02:44:31;;;;;;;11.45;5.38;;;25.10;67.60;;;;;;5092668;28;20103;-73
2021/06/22 02:46:57;;;;;;;10.88;4.45;;;25.10;67.70;;;;;;5092878;28;20437;-73
2021/06/22 02:49:22;;;;;;;10.20;4.65;;;25.10;67.80;;;;;;5092519;28;20032;-73
2021/06/22 02:51:48;;;;;;;11.40;4.97;;;25.10;67.80;;;;;;5093069;28;20447;-73
2021/06/22 02:54:14;;;;;;;17.50;6.15;;;25.10;67.90;;;;;;5092589;28;20055;-72
2021/06/22 02:56:39;;;;;;;14.07;5.25;;;25.10;67.90;;;;;;5092889;28;20038;-72
2021/06/22 02:59:05;;;;;;;11.73;4.47;;;25.10;67.90;;;;;;5092678;28;20475;-73
2021/06/22 03:01:31;;;;;;;19.48;5.80;;;25.10;68.00;;;;;;5091237;28;20487;-73
2021/06/22 03:03:56;;;;;;;13.38;5.30;;;25.10;68.00;;;;;;5092746;28;20031;-73
2021/06/22 03:06:22;;;;;;;15.43;5.97;;;25.10;68.00;;;;;;5092384;28;20059;-73
2021/06/22 03:08:48;;;;;;;15.38;5.70;;;25.10;67.90;;;;;;5092676;28;20016;-72
2021/06/22 03:11:13;;;;;;;13.65;5.13;;;25.10;67.80;;;;;;5092204;28;20395;-72
2021/06/22 03:13:39;;;;;;;13.45;4.70;;;25.10;67.80;;;;;;5092143;28;20105;-71
2021/06/22 03:16:05;;;;;;;13.00;4.97;;;25.10;67.70;;;;;;5092814;28;20035;-73
2021/06/22 03:18:30;;;;;;;11.98;4.68;;;25.10;67.60;;;;;;5092574;28;20102;-73
2021/06/22 03:20:56;;;;;;;15.48;5.13;;;25.10;67.50;;;;;;5092372;28;20024;-73
2021/06/22 03:23:22;;;;;;;13.60;5.05;;;25.10;67.60;;;;;;5092554;28;20095;-72
2021/06/22 03:25:47;;;;;;;12.95;5.30;;;25.00;67.50;;;;;;5092085;28;20032;-73
2021/06/22 03:28:13;;;;;;;11.52;4.50;;;25.10;67.50;;;;;;5092814;28;20024;-71
2021/06/22 03:30:41;;;;;;;17.75;6.03;;;25.10;67.50;;;;;;5092732;28;20078;-72
2021/06/22 03:33:07;;;;;;;11.57;4.72;;;25.10;67.50;;;;;;5092562;28;20460;-73
2021/06/22 03:35:33;;;;;;;11.90;4.95;;;25.10;67.50;;;;;;5092258;28;20039;-73
2021/06/22 03:37:59;;;;;;;14.38;5.75;;;25.10;67.60;;;;;;5092601;28;20058;-73
2021/06/22 03:40:24;;;;;;;11.35;4.75;;;25.10;67.80;;;;;;5092307;28;20100;-73
2021/06/22 03:42:50;;;;;;;12.93;5.45;;;25.10;67.80;;;;;;5091991;28;20032;-73
2021/06/22 03:45:16;;;;;;;12.90;5.38;;;25.10;67.90;;;;;;5092438;28;20325;-72
2021/06/22 03:47:42;;;;;;;12.90;5.80;;;25.10;67.90;;;;;;5092294;28;20072;-72
2021/06/22 03:50:10;;;;;;;12.25;4.93;;;25.10;68.00;;;;;;5092408;28;20035;-73
2021/06/22 03:52:36;;;;;;;13.43;4.80;;;25.10;68.10;;;;;;5090825;28;20031;-73
2021/06/22 03:55:25;;;;;;;12.30;5.75;;;25.10;68.20;;;;;;5092221;28;20032;-73
2021/06/22 03:57:48;;;;;;;12.90;5.68;;;25.10;68.30;;;;;;5091920;28;20029;-72
2021/06/22 04:00:14;;;;;;;14.63;6.55;;;25.10;68.40;;;;;;5092229;28;20024;-72
2021/06/22 04:02:40;;;;;;;12.48;6.18;;;25.00;68.40;;;;;;5092182;28;20070;-73
2021/06/22 04:05:06;;;;;;;16.80;6.00;;;25.00;68.50;;;;;;5092281;28;20020;-74
2021/06/22 04:07:31;;;;;;;15.07;5.93;;;25.10;68.60;;;;;;5096709;28;20039;-73
2021/06/22 04:09:57;;;;;;;12.57;5.45;;;25.00;68.60;;;;;;5093846;28;20048;-73
2021/06/22 04:12:22;;;;;;;16.88;5.97;;;25.00;68.60;;;;;;5092515;28;20036;-73
2021/06/22 04:14:48;;;;;;;16.38;5.60;;;25.00;68.70;;;;;;5092103;28;20050;-73
2021/06/22 04:17:14;;;;;;;12.35;7.38;;;25.00;68.80;;;;;;5092107;28;20028;-71
2021/06/22 04:19:39;;;;;;;14.90;7.07;;;25.00;68.80;;;;;;5090582;28;20028;-73
2021/06/22 04:22:05;;;;;;;17.23;7.40;;;25.00;68.80;;;;;;5091881;28;20456;-73
2021/06/22 04:24:31;;;;;;;13.77;6.05;;;25.00;68.80;;;;;;5091687;28;20052;-72
2021/06/22 04:26:56;;;;;;;11.52;5.53;;;25.00;68.80;;;;;;5094888;28;20043;-73
2021/06/22 04:29:22;;;;;;;17.02;6.95;;;25.00;68.90;;;;;;5094287;28;20093;-73
2021/06/22 04:31:48;;;;;;;14.88;6.50;;;25.00;68.90;;;;;;5095732;28;20524;-72
2021/06/22 04:34:13;;;;;;;13.50;6.47;;;25.00;69.00;;;;;;5095606;28;20028;-73
2021/06/22 04:36:39;;;;;;;13.60;5.93;;;25.00;69.00;;;;;;5094440;28;20032;-72
2021/06/22 04:39:05;;;;;;;14.38;5.47;;;25.00;69.00;;;;;;5095159;28;20384;-73
2021/06/22 04:41:31;;;;;;;11.32;5.75;;;25.00;69.10;;;;;;5095362;28;20046;-73
2021/06/22 04:43:57;;;;;;;14.60;5.80;;;25.00;69.00;;;;;;5095096;28;20375;-73
2021/06/22 04:46:23;;;;;;;16.70;5.95;;;25.00;68.90;;;;;;5095319;28;20089;-73
2021/06/22 04:48:48;;;;;;;11.68;5.05;;;25.00;68.80;;;;;;5095023;28;20085;-73
2021/06/22 04:51:14;;;;;;;14.65;6.07;;;25.00;68.70;;;;;;5095152;28;20028;-73
2021/06/22 04:53:40;;;;;;;13.90;5.47;;;25.00;68.60;;;;;;5094978;28;20442;-73
2021/06/22 04:56:06;;;;;;;15.88;5.57;;;25.00;68.50;;;;;;5095187;28;20651;-73
2021/06/22 04:58:31;;;;;;;14.13;5.30;;;24.90;68.50;;;;;;5094910;28;20357;-73
2021/06/22 05:01:01;;;;;;;10.85;4.95;;;24.90;68.50;;;;;;5093628;28;20024;-73
2021/06/22 05:03:27;;;;;;;13.10;6.03;;;24.90;68.60;;;;;;5094831;28;20016;-73
2021/06/22 05:05:52;;;;;;;13.95;5.10;;;24.90;68.60;;;;;;5093228;28;20032;-75
2021/06/22 05:08:18;;;;;;;12.07;5.88;;;25.00;68.60;;;;;;5094693;28;20024;-72
2021/06/22 05:10:44;;;;;;;15.65;7.82;;;24.90;68.60;;;;;;5094769;28;20048;-73
2021/06/22 05:13:09;;;;;;;14.98;6.38;;;24.90;68.70;;;;;;5094767;28;20373;-73
2021/06/22 05:15:35;;;;;;;21.05;7.00;;;24.90;68.70;;;;;;5094467;28;20035;-74
2021/06/22 05:18:01;;;;;;;13.10;7.07;;;24.90;68.70;;;;;;5094841;28;20028;-73
2021/06/22 05:20:26;;;;;;;15.10;5.78;;;24.90;68.60;;;;;;5094362;28;20442;-73
2021/06/22 05:22:52;;;;;;;13.65;5.63;;;24.90;68.60;;;;;;5094531;28;20024;-73
2021/06/22 05:25:17;;;;;;;18.23;6.25;;;24.90;68.60;;;;;;5094692;28;20027;-72
2021/06/22 05:27:43;;;;;;;14.02;5.35;;;24.90;68.60;;;;;;5094714;28;20032;-72
2021/06/22 05:30:10;;;;;;;18.02;6.72;;;24.90;68.60;;;;;;5094529;28;20024;-73
2021/06/22 05:32:35;;;;;;;11.60;6.32;;;24.90;68.60;;;;;;5094430;28;20024;-73
2021/06/22 05:35:01;;;;;;;10.90;5.38;;;24.90;68.70;;;;;;5094243;28;20085;-73
2021/06/22 05:37:27;;;;;;;16.30;6.25;;;24.90;68.70;;;;;;5093726;28;20028;-73
2021/06/22 05:39:53;;;;;;;13.95;6.57;;;24.90;68.70;;;;;;5094275;28;20024;-73
2021/06/22 05:42:18;;;;;;;14.30;5.95;;;24.90;68.50;;;;;;5094261;28;20031;-73
2021/06/22 05:44:44;;;;;;;13.30;6.30;;;25.00;68.50;;;;;;5093061;28;20021;-73
2021/06/22 05:47:10;;;;;;;12.60;5.70;;;25.00;68.50;;;;;;5093709;28;20491;-73
2021/06/22 05:49:36;;;;;;;13.50;5.93;;;25.00;68.50;;;;;;5093979;28;20024;-72
2021/06/22 05:52:03;;;;;;;12.90;6.15;;;25.00;68.50;;;;;;5093650;28;20540;-72
2021/06/22 05:54:28;;;;;;;16.73;7.15;;;25.00;68.50;;;;;;5094380;28;20396;-72
2021/06/22 05:56:54;;;;;;;13.02;5.45;;;25.00;68.40;;;;;;5092525;28;20028;-72
2021/06/22 05:59:20;;;;;;;17.05;7.63;;;25.00;68.40;;;;;;5093970;28;20016;-72
2021/06/22 06:01:45;;;;;;;14.45;7.53;;;25.00;68.40;;;;;;5093638;28;20024;-73
2021/06/22 06:04:11;;;;;;;10.88;6.32;;;25.00;68.40;;;;;;5093879;28;20039;-73
2021/06/22 06:06:37;;;;;;;18.38;6.88;;;25.00;68.30;;;;;;5093620;28;20032;-72
2021/06/22 06:09:03;;;;;;;13.63;6.47;;;25.00;68.30;;;;;;5093386;28;20389;-74
2021/06/22 06:11:28;;;;;;;21.85;6.25;;;25.00;68.20;;;;;;5093777;28;20400;-73
2021/06/22 06:13:54;;;;;;;10.80;5.72;;;25.00;68.20;;;;;;5093561;28;20027;-69
2021/06/22 06:16:21;;;;;;;16.92;6.05;;;25.00;68.20;;;;;;5093817;28;20028;-73
2021/06/22 06:18:46;;;;;;;16.83;6.55;;;25.00;68.10;;;;;;5093089;28;20059;-74
2021/06/22 06:21:12;;;;;;;14.18;5.10;;;25.00;68.20;;;;;;5097138;28;20036;-72
2021/06/22 06:23:43;;;;;;;17.50;6.50;;;25.00;68.20;;;;;;5094791;28;20036;-73
2021/06/22 06:26:12;;;;;;;10.57;5.32;;;25.00;68.30;;;;;;5093438;28;20040;-74
2021/06/22 06:28:47;;;;;;;12.95;5.63;;;25.10;68.30;;;;;;5093274;28;20020;-77
2021/06/22 06:31:12;;;;;;;11.98;5.97;;;25.00;68.30;;;;;;5093594;28;20036;-73
2021/06/22 06:33:38;;;;;;;12.50;6.50;;;25.10;68.30;;;;;;5093192;28;20024;-73
2021/06/22 06:36:04;;;;;;;16.85;6.03;;;25.10;68.40;;;;;;5093082;28;20039;-73
2021/06/22 06:38:30;;;;;;;13.65;5.43;;;25.10;68.30;;;;;;5093017;28;20058;-72
2021/06/22 06:40:55;;;;;;;15.70;6.03;;;25.10;68.50;;;;;;5093284;28;20024;-72
2021/06/22 06:43:21;;;;;;;11.98;5.60;;;25.00;68.50;;;;;;5093043;28;20388;-73
2021/06/22 06:45:47;;;;;;;11.38;4.70;;;25.00;68.50;;;;;;5092994;28;20038;-73
2021/06/22 06:48:13;;;;;;;19.52;5.30;;;25.10;68.60;;;;;;5092082;28;20427;-73
2021/06/22 06:50:38;;;;;;;20.95;6.15;;;25.10;68.60;;;;;;5092630;28;20021;-72
2021/06/22 06:53:04;;;;;;;13.90;5.20;;;25.10;68.70;;;;;;5093074;28;20024;-72
2021/06/22 06:55:36;;;;;;;15.05;5.18;;;25.10;68.60;;;;;;5091725;28;20024;-73
2021/06/22 06:58:04;;;;;;;12.25;5.55;;;25.10;68.50;;;;;;5092928;28;20437;-72
2021/06/22 07:00:32;;;;;;;25.33;6.68;;;25.10;69.40;;;;;;5092574;28;20056;-75
2021/06/22 07:02:59;;;;;;;22.48;7.25;;;25.00;70.10;;;;;;5092548;28;20472;-74
2021/06/22 07:05:25;;;;;;;15.60;7.55;;;24.80;71.30;;;;;;5092261;28;20036;-74
2021/06/22 07:07:50;;;;;;;18.05;7.20;;;24.70;71.90;;;;;;5093065;28;20069;-75
2021/06/22 07:10:16;;;;;;;20.80;11.88;;;24.60;72.40;;;;;;5092453;28;20450;-75
2021/06/22 07:12:42;;;;;;;26.42;14.90;;;24.60;72.50;;;;;;5092756;28;20055;-75
2021/06/22 07:15:09;;;;;;;25.77;16.67;;;24.50;72.70;;;;;;5092385;28;20056;-75
2021/06/22 07:17:34;;;;;;;31.08;19.42;;;24.50;72.50;;;;;;5091908;28;20051;-73
2021/06/22 07:20:01;;;;;;;37.83;25.45;;;24.50;72.30;;;;;;5092281;28;20512;-78
2021/06/22 07:22:26;;;;;;;40.33;24.17;;;24.60;71.70;;;;;;5090653;28;20030;-70
2021/06/22 07:24:52;;;;;;;36.42;22.10;;;24.50;70.80;;;;;;5092509;28;20433;-74
2021/06/22 07:27:18;;;;;;;27.55;16.42;;;24.60;70.70;;;;;;5092262;28;20036;-75
2021/06/22 07:29:44;;;;;;;27.55;17.40;;;24.60;70.40;;;;;;5092557;28;20028;-74
2021/06/22 07:32:09;;;;;;;29.55;17.08;;;24.50;70.50;;;;;;5092645;28;20032;-77
2021/06/22 07:34:35;;;;;;;33.15;20.15;;;24.50;70.80;;;;;;5092315;28;20028;-76
2021/06/22 07:37:01;;;;;;;23.60;17.45;;;24.50;70.70;;;;;;5092295;28;20590;-77
2021/06/22 07:39:28;;;;;;;24.75;13.57;;;24.50;70.80;;;;;;5092351;28;20024;-71
2021/06/22 07:41:53;;;;;;;26.38;14.48;;;24.50;70.90;;;;;;5091929;28;20111;-71
2021/06/22 07:44:19;;;;;;;28.70;15.70;;;24.50;70.60;;;;;;5091296;28;20173;-72
2021/06/22 07:46:45;;;;;;;24.80;14.90;;;24.60;70.20;;;;;;5090713;28;20472;-71
2021/06/22 07:49:11;;;;;;;31.25;19.17;;;24.70;70.00;;;;;;5091667;28;20438;-71
2021/06/22 07:51:36;;;;;;;31.13;19.25;;;24.70;69.70;;;;;;5091932;28;20035;-71
2021/06/22 07:54:02;;;;;;;26.13;19.00;;;24.80;69.60;;;;;;5091659;28;20032;-71
2021/06/22 07:56:28;;;;;;;31.63;20.98;;;24.80;69.50;;;;;;5091809;28;20032;-71
2021/06/22 07:58:53;;;;;;;31.67;21.20;;;24.80;69.40;;;;;;5092055;28;20468;-71
2021/06/22 08:01:19;;;;;;;29.73;19.95;;;24.80;69.30;;;;;;5093129;28;20051;-70
2021/06/22 08:03:45;;;;;;;31.50;20.83;;;24.90;69.40;;;;;;5095718;28;20017;-73
2021/06/22 08:06:11;;;;;;;28.25;20.92;;;24.80;69.20;;;;;;5096080;28;20108;-72
2021/06/22 08:08:37;;;;;;;30.40;20.10;;;24.90;69.40;;;;;;5095951;28;20031;-71
2021/06/22 08:11:03;;;;;;;26.38;19.30;;;24.90;69.30;;;;;;5096060;28;20052;-71
2021/06/22 08:13:30;;;;;;;29.13;19.70;;;24.90;69.40;;;;;;5095850;28;20020;-71
2021/06/22 08:15:57;;;;;;;23.73;18.33;;;24.90;69.30;;;;;;5095838;28;20067;-71
2021/06/22 08:18:24;;;;;;;24.77;18.38;;;24.90;69.20;;;;;;5095368;28;20024;-71
2021/06/22 08:20:50;;;;;;;27.30;18.23;;;24.90;69.20;;;;;;5095969;28;20493;-72
2021/06/22 08:23:18;;;;;;;27.67;17.20;;;24.90;69.20;;;;;;5095568;28;20024;-72
2021/06/22 08:25:45;;;;;;;25.10;17.45;;;24.90;69.10;;;;;;5096027;28;20472;-72
2021/06/22 08:28:11;;;;;;;21.67;17.50;;;24.90;69.10;;;;;;5095473;28;20024;-71
2021/06/22 08:30:37;;;;;;;26.00;17.92;;;25.00;69.20;;;;;;5094576;28;20111;-72
2021/06/22 08:33:04;;;;;;;26.05;17.38;;;25.00;69.10;;;;;;5098623;28;20555;-71
2021/06/22 08:35:36;;;;;;;27.65;16.70;;;25.00;69.10;;;;;;5099063;28;20062;-72
2021/06/22 08:38:02;;;;;;;21.70;16.70;;;25.00;69.10;;;;;;5094564;28;20031;-72
2021/06/22 08:40:28;;;;;;;22.92;15.38;;;25.00;69.90;;;;;;5095392;28;20401;-72
2021/06/22 08:42:54;;;;;;;25.75;16.15;;;24.90;69.10;;;;;;5095322;28;20042;-72
2021/06/22 08:45:20;;;;;;;24.52;16.00;;;24.90;69.00;;;;;;5094854;28;20107;-72
2021/06/22 08:47:46;;;;;;;20.02;15.15;;;25.00;69.10;;;;;;5095361;28;20559;-72
2021/06/22 08:50:13;;;;;;;27.23;14.93;;;25.00;69.10;;;;;;5095186;28;20028;-72
2021/06/22 08:52:39;;;;;;;23.38;14.80;;;25.00;69.10;;;;;;5095170;28;20032;-72
2021/06/22 08:55:09;;;;;;;22.17;15.43;;;25.00;69.10;;;;;;5094884;28;20540;-72
2021/06/22 08:57:36;;;;;;;20.30;14.63;;;25.00;69.10;;;;;;5094879;28;20088;-72
2021/06/22 09:00:04;;;;;;;21.30;14.55;;;25.00;69.10;;;;;;5094847;28;20055;-72
2021/06/22 09:02:30;;;;;;;20.95;14.38;;;25.00;69.00;;;;;;5094841;28;20495;-72
2021/06/22 09:05:00;;;;;;;17.77;13.13;;;25.00;69.00;;;;;;5093430;28;20025;-72
2021/06/22 09:07:45;;;;;;;18.13;12.63;;;25.00;69.00;;;;;;5094926;28;20028;-72
2021/06/22 09:10:26;;;;;;;23.75;12.27;;;25.00;68.90;;;;;;5094751;28;20044;-71
2021/06/22 09:12:52;;;;;;;;;;;25.00;68.70;;;;;;5094996;28;20031;-72
2021/06/22 09:15:29;;;;;;;18.80;12.27;;;25.00;68.70;;;;;;5094740;28;19904;-73
2021/06/22 09:17:56;;;;;;;19.52;12.15;;;25.00;68.70;;;;;;5094543;28;20149;-72
2021/06/22 09:20:52;;;;;;;17.55;13.15;;;25.00;68.70;;;;;;5094484;28;20020;-72
2021/06/22 09:23:19;;;;;;;18.33;13.23;;;25.00;68.70;;;;;;5090036;28;20115;-72
2021/06/22 09:25:47;;;;;;;19.33;13.00;;;25.00;68.80;;;;;;5094468;28;20036;-72
2021/06/22 09:28:15;;;;;;;15.73;10.80;;;25.00;68.70;;;;;;5094496;28;20031;-71
2021/06/22 09:31:00;;;;;;;18.40;12.00;;;25.00;68.70;;;;;;5094106;28;20047;-71
2021/06/22 09:33:42;;;;;;;14.85;10.75;;;25.00;68.70;;;;;;5094261;28;20590;-72
2021/06/22 09:36:27;;;;;;;20.90;10.20;;;25.00;68.60;;;;;;5094246;28;20059;-72
2021/06/22 09:38:56;;;;;;;14.93;10.20;;;25.00;68.40;;;;;;5094524;28;20051;-72
2021/06/22 09:41:31;;;;;;;17.25;10.55;;;25.00;69.20;;;;;;5093976;28;20051;-73
2021/06/22 09:44:07;;;;;;;14.93;10.07;;;25.00;68.30;;;;;;5094167;28;20024;-72
2021/06/22 09:46:46;;;;;;;17.85;10.27;;;25.00;68.20;;;;;;5094161;28;20028;-72
2021/06/22 09:49:24;;;;;;;15.55;11.60;;;25.00;68.10;;;;;;5093915;28;20106;-72
2021/06/22 09:52:03;;;;;;;18.00;10.50;;;25.00;68.10;;;;;;5093823;28;20055;-72
2021/06/22 09:54:47;;;;;;;15.15;9.45;;;25.00;68.00;;;;;;5094175;28;20063;-72
2021/06/22 09:57:17;;;;;;;16.45;9.90;;;25.00;68.10;;;;;;5092566;28;20456;-72
2021/06/22 09:59:56;;;;;;;13.52;9.70;;;25.00;68.00;;;;;;5093915;28;20032;-72
2021/06/22 10:02:24;;;;;;;15.38;10.98;;;25.00;67.90;;;;;;5093370;28;20456;-73
2021/06/22 10:04:51;;;;;;;15.32;10.13;;;25.00;67.90;;;;;;5093717;28;20110;-72
2021/06/22 10:07:19;;;;;;;14.20;9.70;;;25.00;67.80;;;;;;5093423;28;20089;-71
2021/06/22 10:09:54;;;;;;;13.77;9.18;;;25.00;67.80;;;;;;5093545;28;20048;-70
2021/06/22 10:12:22;;;;;;;16.35;8.88;;;25.00;67.70;;;;;;5092323;28;20024;-71
2021/06/22 10:14:53;;;;;;;16.52;9.75;;;25.00;67.60;;;;;;5093443;28;20020;-70
2021/06/22 10:17:24;;;;;;;12.55;9.30;;;25.00;67.90;;;;;;5093803;28;20055;-71
2021/06/22 10:19:52;;;;;;;12.00;8.45;;;25.00;67.80;;;;;;5093410;28;20052;-71
2021/06/22 10:22:23;;;;;;;15.50;9.30;;;25.00;67.80;;;;;;5093113;28;20059;-71
2021/06/22 10:24:50;;;;;;;11.93;8.05;;;25.00;67.90;;;;;;5092673;28;20430;-74
2021/06/22 10:27:18;;;;;;;16.08;9.88;;;25.00;67.70;;;;;;5093285;28;20031;-70
2021/06/22 10:29:52;;;;;;;15.05;8.30;;;25.00;67.60;;;;;;5093180;28;20035;-70
2021/06/22 10:32:20;;;;;;;13.18;8.48;;;25.00;67.60;;;;;;5086418;28;20392;-69
2021/06/22 10:34:51;;;;;;;14.10;9.50;;;25.00;67.60;;;;;;5087996;28;20028;-69
2021/06/22 10:37:30;;;;;;;14.30;8.50;;;25.00;67.40;;;;;;5093199;28;20059;-70
2021/06/22 10:40:03;;;;;;;18.02;9.32;;;25.00;67.60;;;;;;5092844;28;20426;-70
2021/06/22 10:42:39;;;;;;;15.88;8.90;;;25.00;67.60;;;;;;5093048;28;20024;-72
2021/06/22 10:45:05;;;;;;;15.98;8.25;;;25.10;67.50;;;;;;5099405;28;20357;-72
2021/06/22 10:47:33;;;;;;;14.63;8.40;;;25.00;68.30;;;;;;5100714;28;20156;-72
2021/06/22 10:50:22;;;;;;;16.23;9.05;;;25.00;67.70;;;;;;5092752;28;20460;-72
2021/06/22 10:52:57;;;;;;;14.70;7.93;;;25.00;67.60;;;;;;5093193;28;20024;-72
2021/06/22 10:55:33;;;;;;;10.32;7.15;;;25.00;67.70;;;;;;5092886;28;20028;-72
2021/06/22 10:58:02;;;;;;;13.88;8.02;;;25.00;67.70;;;;;;5092536;28;20039;-71
2021/06/22 11:00:30;;;;;;;13.40;8.50;;;25.00;67.60;;;;;;5092493;28;20112;-72
2021/06/22 11:03:00;;;;;;;12.65;8.40;;;25.10;67.60;;;;;;5092498;28;20042;-71
2021/06/22 11:05:26;;;;;;;12.87;8.43;;;25.00;67.50;;;;;;5092646;28;20066;-72
2021/06/22 11:08:13;;;;;;;12.73;7.90;;;25.10;67.60;;;;;;5091354;28;20389;-72
2021/06/22 11:10:54;;;;;;;17.02;9.35;;;25.10;67.60;;;;;;5092511;28;20093;-72
2021/06/22 11:13:47;;;;;;;16.30;9.05;;;25.10;67.60;;;;;;5092393;28;20039;-72
2021/06/22 11:16:18;;;;;;;10.98;8.50;;;25.10;67.50;;;;;;5092661;28;20064;-72
2021/06/22 11:18:53;;;;;;;15.52;8.45;;;25.00;67.40;;;;;;5092236;28;20028;-70
2021/06/22 11:21:33;;;;;;;10.77;7.90;;;25.10;67.30;;;;;;5092169;28;20020;-72
2021/06/22 11:24:12;;;;;;;19.05;9.43;;;25.10;67.40;;;;;;5091141;28;20357;-72
2021/06/22 11:26:49;;;;;;;25.38;12.57;;;25.10;67.40;;;;;;5091988;28;20364;-72
2021/06/22 11:29:42;;;;;;;20.20;13.15;;;25.10;67.30;;;;;;5079616;28;20017;-72
2021/06/22 11:32:09;;;;;;;25.48;13.00;;;25.10;67.20;;;;;;5071466;28;20045;-72
2021/06/22 11:34:56;;;;;;;19.90;9.60;;;25.10;67.00;;;;;;5073050;28;20040;-72
2021/06/22 11:37:23;;;;;;;13.20;8.32;;;25.10;67.00;;;;;;5075819;28;20100;-73
2021/06/22 11:39:58;;;;;;;16.15;7.25;;;25.10;66.80;;;;;;5076212;28;20036;-71
2021/06/22 11:42:24;;;;;;;13.98;7.88;;;25.10;66.70;;;;;;5074593;28;20136;-72
2021/06/22 11:45:14;;;;;;;15.85;6.78;;;25.10;66.40;;;;;;5076015;28;20083;-73
2021/06/22 11:47:40;;;;;;;13.35;7.53;;;25.20;66.30;;;;;;5075954;28;20404;-73
2021/06/22 11:50:11;;;;;;;18.38;8.48;;;25.20;66.30;;;;;;5074523;28;20509;-73
2021/06/22 11:52:50;;;;;;;15.48;6.03;;;25.20;66.40;;;;;;5075634;28;20532;-73
2021/06/22 11:55:19;;;;;;;15.60;6.50;;;25.20;66.10;;;;;;5076008;28;20043;-72
2021/06/22 11:57:50;;;;;;;18.42;7.55;;;25.20;66.30;;;;;;5075731;28;20020;-72
2021/06/22 12:00:24;;;;;;;14.98;6.43;;;25.20;66.40;;;;;;5075789;28;20464;-68
2021/06/22 12:02:51;;;;;;;15.88;7.78;;;25.20;66.20;;;;;;5075617;28;20077;-72
2021/06/22 12:05:19;;;;;;;9.65;5.95;;;25.20;66.30;;;;;;5075094;28;20043;-70
2021/06/22 12:07:53;;;;;;;16.73;6.13;;;25.20;66.50;;;;;;5074690;28;20036;-71
2021/06/22 12:10:21;;;;;;;12.23;6.68;;;25.10;66.50;;;;;;5073593;28;20044;-71
2021/06/22 12:12:48;;;;;;;13.82;6.35;;;25.20;66.80;;;;;;5073650;28;20025;-71
2021/06/22 12:15:27;;;;;;;11.23;6.97;;;25.20;66.90;;;;;;5073543;28;20029;-71
2021/06/22 12:17:52;;;;;;;11.40;6.00;;;25.10;66.90;;;;;;5073012;28;20033;-71
2021/06/22 12:20:25;;;;;;;14.48;6.20;;;25.10;67.00;;;;;;5073445;28;20078;-71
2021/06/22 12:23:12;;;;;;;13.93;6.90;;;25.20;67.20;;;;;;5073780;28;20362;-72
2021/06/22 12:25:41;;;;;;;14.35;5.47;;;25.10;67.10;;;;;;5075655;28;20036;-72
2021/06/22 12:28:08;;;;;;;15.83;6.77;;;25.10;67.10;;;;;;5075388;28;20492;-72
2021/06/22 12:30:40;;;;;;;13.23;6.72;;;25.20;67.30;;;;;;5075451;28;20028;-72
2021/06/22 12:33:12;;;;;;;16.10;6.80;;;25.10;67.20;;;;;;5075234;28;20034;-72
2021/06/22 12:35:42;;;;;;;11.55;6.03;;;25.10;67.30;;;;;;5075309;28;20032;-72
2021/06/22 12:38:11;;;;;;;12.85;5.80;;;25.20;67.30;;;;;;5082799;28;20047;-72
2021/06/22 12:40:48;;;;;;;9.52;6.10;;;25.10;67.20;;;;;;5095215;28;20028;-71
2021/06/22 12:43:17;;;;;;;11.30;6.10;;;25.10;68.00;;;;;;5092563;28;20411;-72